sensor_id;sensor_type;location;lat;lon;timestamp;temperature;humidity
11284;DHT22;5698;47.332;11.180;2022-11-27T00:00:44;-0.50;99.90
11284;DHT22;5698;47.332;11.180;2022-11-27T00:03:11;-0.50;99.90
11284;DHT22;5698;47.332;11.180;2022-11-27T00:05:38;-0.50;99.90
11284;DHT22;5698;47.332;11.180;2022-11-27T00:08:07;-0.50;99.90
11284;DHT22;5698;47.332;11.180;2022-11-27T00:10:34;-0.60;99.90
11284;DHT22;5698;47.332;11.180;2022-11-27T00:13:01;-0.70;99.90
11284;DHT22;5698;47.332;11.180;2022-11-27T00:15:28;-0.70;99.90
11284;DHT22;5698;47.332;11.180;2022-11-27T00:17:55;-0.70;99.90
11284;DHT22;5698;47.332;11.180;2022-11-27T00:20:22;-0.80;99.90
11284;DHT22;5698;47.332;11.180;2022-11-27T00:22:49;-0.90;99.90
11284;DHT22;5698;47.332;11.180;2022-11-27T00:25:17;-0.90;99.90
11284;DHT22;5698;47.332;11.180;2022-11-27T00:27:44;-0.80;99.90
11284;DHT22;5698;47.332;11.180;2022-11-27T00:30:12;-0.80;99.90
11284;DHT22;5698;47.332;11.180;2022-11-27T00:32:40;-0.70;99.90
11284;DHT22;5698;47.332;11.180;2022-11-27T00:35:07;-0.70;99.90
11284;DHT22;5698;47.332;11.180;2022-11-27T00:37:34;-0.70;99.90
11284;DHT22;5698;47.332;11.180;2022-11-27T00:40:01;-0.70;99.90
11284;DHT22;5698;47.332;11.180;2022-11-27T00:42:30;-0.70;99.90
11284;DHT22;5698;47.332;11.180;2022-11-27T00:44:57;-0.80;99.90
11284;DHT22;5698;47.332;11.180;2022-11-27T00:47:24;-0.80;99.90
11284;DHT22;5698;47.332;11.180;2022-11-27T00:49:51;-0.90;99.90
11284;DHT22;5698;47.332;11.180;2022-11-27T00:52:18;-0.90;99.90
11284;DHT22;5698;47.332;11.180;2022-11-27T00:54:45;-0.90;99.90
11284;DHT22;5698;47.332;11.180;2022-11-27T00:57:12;-0.90;99.90
11284;DHT22;5698;47.332;11.180;2022-11-27T00:59:40;-0.90;99.90
11284;DHT22;5698;47.332;11.180;2022-11-27T01:02:07;-0.90;99.90
11284;DHT22;5698;47.332;11.180;2022-11-27T01:04:34;-0.90;99.90
11284;DHT22;5698;47.332;11.180;2022-11-27T01:07:01;-0.90;99.90
11284;DHT22;5698;47.332;11.180;2022-11-27T01:09:28;-1.00;99.90
11284;DHT22;5698;47.332;11.180;2022-11-27T01:11:55;-1.00;99.90
11284;DHT22;5698;47.332;11.180;2022-11-27T01:14:22;-0.90;99.90
11284;DHT22;5698;47.332;11.180;2022-11-27T01:16:50;-1.10;99.90
11284;DHT22;5698;47.332;11.180;2022-11-27T01:19:17;-1.10;99.90
11284;DHT22;5698;47.332;11.180;2022-11-27T01:21:44;-1.10;99.90
11284;DHT22;5698;47.332;11.180;2022-11-27T01:24:13;-1.10;99.90
11284;DHT22;5698;47.332;11.180;2022-11-27T01:26:40;-1.10;99.90
11284;DHT22;5698;47.332;11.180;2022-11-27T01:29:08;-1.10;99.90
11284;DHT22;5698;47.332;11.180;2022-11-27T01:31:35;-1.20;99.90
11284;DHT22;5698;47.332;11.180;2022-11-27T01:34:06;-1.20;99.90
11284;DHT22;5698;47.332;11.180;2022-11-27T01:36:33;-1.20;99.90
11284;DHT22;5698;47.332;11.180;2022-11-27T01:39:00;-1.30;99.90
11284;DHT22;5698;47.332;11.180;2022-11-27T01:41:30;-1.30;99.90
11284;DHT22;5698;47.332;11.180;2022-11-27T01:43:59;-1.40;99.90
11284;DHT22;5698;47.332;11.180;2022-11-27T01:46:35;-1.40;99.90
11284;DHT22;5698;47.332;11.180;2022-11-27T01:49:22;-1.40;99.90
11284;DHT22;5698;47.332;11.180;2022-11-27T01:51:53;-1.50;99.90
11284;DHT22;5698;47.332;11.180;2022-11-27T01:54:24;-1.50;99.90
11284;DHT22;5698;47.332;11.180;2022-11-27T01:56:54;-1.50;99.90
11284;DHT22;5698;47.332;11.180;2022-11-27T01:59:22;-1.60;99.90
11284;DHT22;5698;47.332;11.180;2022-11-27T02:01:50;-1.60;99.90
11284;DHT22;5698;47.332;11.180;2022-11-27T02:04:17;-1.70;99.90
11284;DHT22;5698;47.332;11.180;2022-11-27T02:06:45;-1.70;99.90
11284;DHT22;5698;47.332;11.180;2022-11-27T02:09:12;-1.70;99.90
11284;DHT22;5698;47.332;11.180;2022-11-27T02:11:43;-1.80;99.90
11284;DHT22;5698;47.332;11.180;2022-11-27T02:14:17;-1.70;99.90
11284;DHT22;5698;47.332;11.180;2022-11-27T02:16:53;-1.70;99.90
11284;DHT22;5698;47.332;11.180;2022-11-27T02:19:32;-1.50;99.90
11284;DHT22;5698;47.332;11.180;2022-11-27T02:22:04;-1.50;99.90
11284;DHT22;5698;47.332;11.180;2022-11-27T02:24:45;-1.70;99.90
11284;DHT22;5698;47.332;11.180;2022-11-27T02:27:42;-1.80;99.90
11284;DHT22;5698;47.332;11.180;2022-11-27T02:30:14;-1.80;99.90
11284;DHT22;5698;47.332;11.180;2022-11-27T02:32:46;-1.90;99.90
11284;DHT22;5698;47.332;11.180;2022-11-27T02:35:18;-1.90;99.90
11284;DHT22;5698;47.332;11.180;2022-11-27T02:37:48;-1.80;99.90
11284;DHT22;5698;47.332;11.180;2022-11-27T02:40:20;-1.90;99.90
11284;DHT22;5698;47.332;11.180;2022-11-27T02:42:54;-1.80;99.90
11284;DHT22;5698;47.332;11.180;2022-11-27T02:45:26;-1.80;99.90
11284;DHT22;5698;47.332;11.180;2022-11-27T02:47:55;-1.80;99.90
11284;DHT22;5698;47.332;11.180;2022-11-27T02:50:24;-1.80;99.90
11284;DHT22;5698;47.332;11.180;2022-11-27T02:52:54;-1.80;99.90
11284;DHT22;5698;47.332;11.180;2022-11-27T02:55:25;-1.90;99.90
11284;DHT22;5698;47.332;11.180;2022-11-27T02:57:55;-2.00;99.90
11284;DHT22;5698;47.332;11.180;2022-11-27T03:00:25;-2.00;99.90
11284;DHT22;5698;47.332;11.180;2022-11-27T03:02:54;-2.00;99.90
11284;DHT22;5698;47.332;11.180;2022-11-27T03:05:26;-2.00;99.90
11284;DHT22;5698;47.332;11.180;2022-11-27T03:08:00;-2.00;99.90
11284;DHT22;5698;47.332;11.180;2022-11-27T03:10:34;-1.90;99.90
11284;DHT22;5698;47.332;11.180;2022-11-27T03:13:02;-2.00;99.90
11284;DHT22;5698;47.332;11.180;2022-11-27T03:15:38;-1.90;99.90
11284;DHT22;5698;47.332;11.180;2022-11-27T03:18:12;-2.00;99.90
11284;DHT22;5698;47.332;11.180;2022-11-27T03:20:42;-2.00;99.90
11284;DHT22;5698;47.332;11.180;2022-11-27T03:23:13;-2.10;99.90
11284;DHT22;5698;47.332;11.180;2022-11-27T03:25:40;-2.10;99.90
11284;DHT22;5698;47.332;11.180;2022-11-27T03:28:09;-2.10;99.90
11284;DHT22;5698;47.332;11.180;2022-11-27T03:30:40;-2.20;99.90
11284;DHT22;5698;47.332;11.180;2022-11-27T03:33:07;-2.20;99.90
11284;DHT22;5698;47.332;11.180;2022-11-27T03:35:35;-2.20;99.90
11284;DHT22;5698;47.332;11.180;2022-11-27T03:38:02;-2.30;99.90
11284;DHT22;5698;47.332;11.180;2022-11-27T03:40:35;-2.20;99.90
11284;DHT22;5698;47.332;11.180;2022-11-27T03:43:10;-2.30;99.90
11284;DHT22;5698;47.332;11.180;2022-11-27T03:45:47;-2.30;99.90
11284;DHT22;5698;47.332;11.180;2022-11-27T03:48:23;-2.40;99.90
11284;DHT22;5698;47.332;11.180;2022-11-27T03:51:02;-2.40;99.90
11284;DHT22;5698;47.332;11.180;2022-11-27T03:53:37;-2.30;99.90
11284;DHT22;5698;47.332;11.180;2022-11-27T03:56:13;-2.40;99.90
11284;DHT22;5698;47.332;11.180;2022-11-27T03:58:45;-2.50;99.90
11284;DHT22;5698;47.332;11.180;2022-11-27T04:01:17;-2.50;99.90
11284;DHT22;5698;47.332;11.180;2022-11-27T04:03:45;-2.50;99.90
11284;DHT22;5698;47.332;11.180;2022-11-27T04:06:12;-2.50;99.90
11284;DHT22;5698;47.332;11.180;2022-11-27T04:08:40;-2.50;99.90
11284;DHT22;5698;47.332;11.180;2022-11-27T04:11:07;-2.50;99.90
11284;DHT22;5698;47.332;11.180;2022-11-27T04:13:34;-2.50;99.90
11284;DHT22;5698;47.332;11.180;2022-11-27T04:16:02;-2.60;99.90
11284;DHT22;5698;47.332;11.180;2022-11-27T04:18:30;-2.60;99.90
11284;DHT22;5698;47.332;11.180;2022-11-27T04:20:57;-2.70;99.90
11284;DHT22;5698;47.332;11.180;2022-11-27T04:23:25;-2.60;99.90
11284;DHT22;5698;47.332;11.180;2022-11-27T04:25:51;-2.70;99.90
11284;DHT22;5698;47.332;11.180;2022-11-27T04:28:18;-2.60;99.90
11284;DHT22;5698;47.332;11.180;2022-11-27T04:30:50;-2.80;99.90
11284;DHT22;5698;47.332;11.180;2022-11-27T04:33:17;-2.80;99.90
11284;DHT22;5698;47.332;11.180;2022-11-27T04:35:46;-2.80;99.90
11284;DHT22;5698;47.332;11.180;2022-11-27T04:38:13;-2.80;99.90
11284;DHT22;5698;47.332;11.180;2022-11-27T04:40:40;-2.90;99.90
11284;DHT22;5698;47.332;11.180;2022-11-27T04:43:07;-2.90;99.90
11284;DHT22;5698;47.332;11.180;2022-11-27T04:45:34;-2.90;99.90
11284;DHT22;5698;47.332;11.180;2022-11-27T04:48:01;-2.90;99.90
11284;DHT22;5698;47.332;11.180;2022-11-27T04:50:28;-2.90;99.90
11284;DHT22;5698;47.332;11.180;2022-11-27T04:52:57;-2.90;99.90
11284;DHT22;5698;47.332;11.180;2022-11-27T04:55:24;-2.90;99.90
11284;DHT22;5698;47.332;11.180;2022-11-27T04:57:51;-2.90;99.90
11284;DHT22;5698;47.332;11.180;2022-11-27T05:00:19;-2.90;99.90
11284;DHT22;5698;47.332;11.180;2022-11-27T05:02:47;-3.00;99.90
11284;DHT22;5698;47.332;11.180;2022-11-27T05:05:14;-3.00;99.90
11284;DHT22;5698;47.332;11.180;2022-11-27T05:07:41;-3.10;99.90
11284;DHT22;5698;47.332;11.180;2022-11-27T05:10:10;-3.10;99.90
11284;DHT22;5698;47.332;11.180;2022-11-27T05:12:37;-3.30;99.90
11284;DHT22;5698;47.332;11.180;2022-11-27T05:15:06;-3.30;99.90
11284;DHT22;5698;47.332;11.180;2022-11-27T05:17:33;-3.30;99.90
11284;DHT22;5698;47.332;11.180;2022-11-27T05:20:00;-3.30;99.90
11284;DHT22;5698;47.332;11.180;2022-11-27T05:22:27;-3.20;99.90
11284;DHT22;5698;47.332;11.180;2022-11-27T05:24:54;-3.30;99.90
11284;DHT22;5698;47.332;11.180;2022-11-27T05:27:22;-3.30;99.90
11284;DHT22;5698;47.332;11.180;2022-11-27T05:29:50;-3.30;99.90
11284;DHT22;5698;47.332;11.180;2022-11-27T05:32:17;-3.30;99.90
11284;DHT22;5698;47.332;11.180;2022-11-27T05:34:44;-3.40;99.90
11284;DHT22;5698;47.332;11.180;2022-11-27T05:37:13;-3.40;99.90
11284;DHT22;5698;47.332;11.180;2022-11-27T05:39:40;-3.40;99.90
11284;DHT22;5698;47.332;11.180;2022-11-27T05:42:07;-3.40;99.90
11284;DHT22;5698;47.332;11.180;2022-11-27T05:44:35;-3.40;99.90
11284;DHT22;5698;47.332;11.180;2022-11-27T05:47:02;-3.40;99.90
11284;DHT22;5698;47.332;11.180;2022-11-27T05:49:29;-3.40;99.90
11284;DHT22;5698;47.332;11.180;2022-11-27T05:51:56;-3.40;99.90
11284;DHT22;5698;47.332;11.180;2022-11-27T05:54:23;-3.40;99.90
11284;DHT22;5698;47.332;11.180;2022-11-27T05:56:50;-3.40;99.90
11284;DHT22;5698;47.332;11.180;2022-11-27T05:59:17;-3.40;99.90
11284;DHT22;5698;47.332;11.180;2022-11-27T06:01:46;-3.40;99.90
11284;DHT22;5698;47.332;11.180;2022-11-27T06:04:15;-3.30;99.90
11284;DHT22;5698;47.332;11.180;2022-11-27T06:06:42;-3.50;99.90
11284;DHT22;5698;47.332;11.180;2022-11-27T06:09:09;-3.40;99.90
11284;DHT22;5698;47.332;11.180;2022-11-27T06:11:36;-3.40;99.90
11284;DHT22;5698;47.332;11.180;2022-11-27T06:14:03;-3.50;99.90
11284;DHT22;5698;47.332;11.180;2022-11-27T06:16:32;-3.50;99.90
11284;DHT22;5698;47.332;11.180;2022-11-27T06:19:01;-3.50;99.90
11284;DHT22;5698;47.332;11.180;2022-11-27T06:21:28;-3.40;99.90
11284;DHT22;5698;47.332;11.180;2022-11-27T06:23:55;-3.50;99.90
11284;DHT22;5698;47.332;11.180;2022-11-27T06:26:25;-3.50;99.90
11284;DHT22;5698;47.332;11.180;2022-11-27T06:28:53;-3.50;99.90
11284;DHT22;5698;47.332;11.180;2022-11-27T06:31:23;-3.40;99.90
11284;DHT22;5698;47.332;11.180;2022-11-27T06:33:52;-3.50;99.90
11284;DHT22;5698;47.332;11.180;2022-11-27T06:36:21;-3.50;99.90
11284;DHT22;5698;47.332;11.180;2022-11-27T06:38:49;-3.50;99.90
11284;DHT22;5698;47.332;11.180;2022-11-27T06:41:17;-3.50;99.90
11284;DHT22;5698;47.332;11.180;2022-11-27T06:43:45;-3.50;99.90
11284;DHT22;5698;47.332;11.180;2022-11-27T06:46:14;-3.50;99.90
11284;DHT22;5698;47.332;11.180;2022-11-27T06:48:42;-3.50;99.90
11284;DHT22;5698;47.332;11.180;2022-11-27T06:51:11;-3.60;99.90
11284;DHT22;5698;47.332;11.180;2022-11-27T06:53:40;-3.60;99.90
11284;DHT22;5698;47.332;11.180;2022-11-27T06:56:09;-3.60;99.90
11284;DHT22;5698;47.332;11.180;2022-11-27T06:58:37;-3.60;99.90
11284;DHT22;5698;47.332;11.180;2022-11-27T07:01:06;-3.50;99.90
11284;DHT22;5698;47.332;11.180;2022-11-27T07:03:34;-3.60;99.90
11284;DHT22;5698;47.332;11.180;2022-11-27T07:06:02;-3.60;99.90
11284;DHT22;5698;47.332;11.180;2022-11-27T07:08:30;-3.60;99.90
11284;DHT22;5698;47.332;11.180;2022-11-27T07:11:02;-3.40;99.90
11284;DHT22;5698;47.332;11.180;2022-11-27T07:13:29;-3.60;99.90
11284;DHT22;5698;47.332;11.180;2022-11-27T07:15:58;-3.70;99.90
11284;DHT22;5698;47.332;11.180;2022-11-27T07:18:26;-3.70;99.90
11284;DHT22;5698;47.332;11.180;2022-11-27T07:20:53;-3.70;99.90
11284;DHT22;5698;47.332;11.180;2022-11-27T07:23:20;-3.70;99.90
11284;DHT22;5698;47.332;11.180;2022-11-27T07:25:47;-3.60;99.90
11284;DHT22;5698;47.332;11.180;2022-11-27T07:28:15;-3.60;99.90
11284;DHT22;5698;47.332;11.180;2022-11-27T07:30:42;-3.70;99.90
11284;DHT22;5698;47.332;11.180;2022-11-27T07:33:09;-3.80;99.90
11284;DHT22;5698;47.332;11.180;2022-11-27T07:35:36;-3.80;99.90
11284;DHT22;5698;47.332;11.180;2022-11-27T07:38:03;-3.80;99.90
11284;DHT22;5698;47.332;11.180;2022-11-27T07:40:30;-3.60;99.90
11284;DHT22;5698;47.332;11.180;2022-11-27T07:42:57;-3.50;99.90
11284;DHT22;5698;47.332;11.180;2022-11-27T07:45:26;-3.30;99.90
11284;DHT22;5698;47.332;11.180;2022-11-27T07:47:53;-3.10;99.90
11284;DHT22;5698;47.332;11.180;2022-11-27T07:50:20;-2.90;99.90
11284;DHT22;5698;47.332;11.180;2022-11-27T07:52:47;-2.80;99.90
11284;DHT22;5698;47.332;11.180;2022-11-27T07:55:14;-2.70;99.90
11284;DHT22;5698;47.332;11.180;2022-11-27T07:57:41;-2.70;99.90
11284;DHT22;5698;47.332;11.180;2022-11-27T08:00:09;-2.70;99.90
11284;DHT22;5698;47.332;11.180;2022-11-27T08:02:37;-2.40;99.90
11284;DHT22;5698;47.332;11.180;2022-11-27T08:05:05;-2.20;99.90
11284;DHT22;5698;47.332;11.180;2022-11-27T08:07:32;-2.00;99.90
11284;DHT22;5698;47.332;11.180;2022-11-27T08:09:59;-1.80;99.90
11284;DHT22;5698;47.332;11.180;2022-11-27T08:12:26;-1.50;99.90
11284;DHT22;5698;47.332;11.180;2022-11-27T08:14:53;-1.20;99.90
11284;DHT22;5698;47.332;11.180;2022-11-27T08:17:20;-0.90;99.90
11284;DHT22;5698;47.332;11.180;2022-11-27T08:19:48;-0.80;99.90
11284;DHT22;5698;47.332;11.180;2022-11-27T08:22:16;-0.50;99.90
11284;DHT22;5698;47.332;11.180;2022-11-27T08:24:45;-0.30;99.90
11284;DHT22;5698;47.332;11.180;2022-11-27T08:27:13;-0.10;99.90
11284;DHT22;5698;47.332;11.180;2022-11-27T08:29:40;0.20;99.90
11284;DHT22;5698;47.332;11.180;2022-11-27T08:32:07;0.50;99.90
11284;DHT22;5698;47.332;11.180;2022-11-27T08:34:34;0.80;99.90
11284;DHT22;5698;47.332;11.180;2022-11-27T08:37:04;1.00;99.90
11284;DHT22;5698;47.332;11.180;2022-11-27T08:39:31;1.30;99.90
11284;DHT22;5698;47.332;11.180;2022-11-27T08:41:58;1.60;99.90
11284;DHT22;5698;47.332;11.180;2022-11-27T08:44:25;1.80;99.90
11284;DHT22;5698;47.332;11.180;2022-11-27T08:46:52;2.10;99.90
11284;DHT22;5698;47.332;11.180;2022-11-27T08:49:19;2.40;99.90
11284;DHT22;5698;47.332;11.180;2022-11-27T08:51:46;2.70;99.90
11284;DHT22;5698;47.332;11.180;2022-11-27T08:54:15;2.90;99.90
11284;DHT22;5698;47.332;11.180;2022-11-27T08:56:42;2.90;99.90
11284;DHT22;5698;47.332;11.180;2022-11-27T08:59:09;3.00;99.90
11284;DHT22;5698;47.332;11.180;2022-11-27T09:01:36;3.20;99.90
11284;DHT22;5698;47.332;11.180;2022-11-27T09:04:03;2.80;99.90
11284;DHT22;5698;47.332;11.180;2022-11-27T09:06:31;2.90;99.90
11284;DHT22;5698;47.332;11.180;2022-11-27T09:09:00;3.30;99.90
11284;DHT22;5698;47.332;11.180;2022-11-27T09:11:30;3.50;99.90
11284;DHT22;5698;47.332;11.180;2022-11-27T09:13:59;3.50;99.90
11284;DHT22;5698;47.332;11.180;2022-11-27T09:16:27;3.70;99.90
11284;DHT22;5698;47.332;11.180;2022-11-27T09:18:55;4.10;99.90
11284;DHT22;5698;47.332;11.180;2022-11-27T09:21:24;4.10;99.90
11284;DHT22;5698;47.332;11.180;2022-11-27T09:23:53;4.30;99.90
11284;DHT22;5698;47.332;11.180;2022-11-27T09:26:20;4.40;99.40
11284;DHT22;5698;47.332;11.180;2022-11-27T09:28:50;4.10;98.80
11284;DHT22;5698;47.332;11.180;2022-11-27T09:31:17;3.60;96.50
11284;DHT22;5698;47.332;11.180;2022-11-27T09:33:45;3.60;96.60
11284;DHT22;5698;47.332;11.180;2022-11-27T09:36:13;3.20;96.50
11284;DHT22;5698;47.332;11.180;2022-11-27T09:38:41;3.10;96.60
11284;DHT22;5698;47.332;11.180;2022-11-27T09:44:19;3.40;97.00
11284;DHT22;5698;47.332;11.180;2022-11-27T09:46:50;3.70;95.80
11284;DHT22;5698;47.332;11.180;2022-11-27T09:49:20;3.80;98.30
11284;DHT22;5698;47.332;11.180;2022-11-27T09:51:51;4.40;99.90
11284;DHT22;5698;47.332;11.180;2022-11-27T09:54:23;4.80;95.60
11284;DHT22;5698;47.332;11.180;2022-11-27T09:56:53;5.30;94.80
11284;DHT22;5698;47.332;11.180;2022-11-27T09:59:24;5.70;96.70
11284;DHT22;5698;47.332;11.180;2022-11-27T10:01:53;6.30;97.50
11284;DHT22;5698;47.332;11.180;2022-11-27T10:04:20;6.80;97.70
11284;DHT22;5698;47.332;11.180;2022-11-27T10:07:09;7.20;96.10
11284;DHT22;5698;47.332;11.180;2022-11-27T10:09:56;7.30;98.90
11284;DHT22;5698;47.332;11.180;2022-11-27T10:12:34;7.60;97.90
11284;DHT22;5698;47.332;11.180;2022-11-27T10:15:14;7.90;99.30
11284;DHT22;5698;47.332;11.180;2022-11-27T10:17:45;8.10;99.10
11284;DHT22;5698;47.332;11.180;2022-11-27T10:20:22;8.30;97.40
11284;DHT22;5698;47.332;11.180;2022-11-27T10:22:59;8.50;95.20
11284;DHT22;5698;47.332;11.180;2022-11-27T10:25:32;8.50;95.80
11284;DHT22;5698;47.332;11.180;2022-11-27T10:28:11;8.70;97.10
11284;DHT22;5698;47.332;11.180;2022-11-27T10:30:47;9.00;96.50
11284;DHT22;5698;47.332;11.180;2022-11-27T10:33:23;9.10;92.30
11284;DHT22;5698;47.332;11.180;2022-11-27T10:35:52;8.80;89.40
11284;DHT22;5698;47.332;11.180;2022-11-27T10:38:21;8.60;85.20
11284;DHT22;5698;47.332;11.180;2022-11-27T10:40:57;8.30;82.30
11284;DHT22;5698;47.332;11.180;2022-11-27T10:43:28;8.20;88.50
11284;DHT22;5698;47.332;11.180;2022-11-27T10:46:01;8.30;84.80
11284;DHT22;5698;47.332;11.180;2022-11-27T10:48:31;8.70;81.00
11284;DHT22;5698;47.332;11.180;2022-11-27T10:50:58;8.60;77.20
11284;DHT22;5698;47.332;11.180;2022-11-27T10:53:28;8.70;76.40
11284;DHT22;5698;47.332;11.180;2022-11-27T10:59:00;8.60;70.80
11284;DHT22;5698;47.332;11.180;2022-11-27T11:01:41;8.30;75.00
11284;DHT22;5698;47.332;11.180;2022-11-27T11:04:10;8.80;81.60
11284;DHT22;5698;47.332;11.180;2022-11-27T11:06:41;9.30;81.30
11284;DHT22;5698;47.332;11.180;2022-11-27T11:09:13;10.00;85.10
11284;DHT22;5698;47.332;11.180;2022-11-27T11:11:40;10.60;83.10
11284;DHT22;5698;47.332;11.180;2022-11-27T11:14:15;11.00;83.90
11284;DHT22;5698;47.332;11.180;2022-11-27T11:16:45;11.30;82.30
11284;DHT22;5698;47.332;11.180;2022-11-27T11:19:24;11.40;88.60
11284;DHT22;5698;47.332;11.180;2022-11-27T11:21:51;11.70;86.70
11284;DHT22;5698;47.332;11.180;2022-11-27T11:24:24;11.90;84.20
11284;DHT22;5698;47.332;11.180;2022-11-27T11:26:54;12.10;85.50
11284;DHT22;5698;47.332;11.180;2022-11-27T11:29:30;12.20;82.60
11284;DHT22;5698;47.332;11.180;2022-11-27T11:32:05;12.30;82.00
11284;DHT22;5698;47.332;11.180;2022-11-27T11:34:34;12.40;86.50
11284;DHT22;5698;47.332;11.180;2022-11-27T11:37:13;12.50;81.80
11284;DHT22;5698;47.332;11.180;2022-11-27T11:39:46;12.50;79.80
11284;DHT22;5698;47.332;11.180;2022-11-27T11:42:19;12.60;80.90
11284;DHT22;5698;47.332;11.180;2022-11-27T11:44:50;12.70;80.10
11284;DHT22;5698;47.332;11.180;2022-11-27T11:47:20;12.90;81.70
11284;DHT22;5698;47.332;11.180;2022-11-27T11:49:50;13.00;78.60
11284;DHT22;5698;47.332;11.180;2022-11-27T11:52:24;13.00;76.50
11284;DHT22;5698;47.332;11.180;2022-11-27T11:54:58;12.90;75.10
11284;DHT22;5698;47.332;11.180;2022-11-27T11:57:54;12.70;75.00
11284;DHT22;5698;47.332;11.180;2022-11-27T12:00:25;12.40;73.90
11284;DHT22;5698;47.332;11.180;2022-11-27T12:06:10;12.10;75.50
11284;DHT22;5698;47.332;11.180;2022-11-27T12:11:32;11.70;69.30
11284;DHT22;5698;47.332;11.180;2022-11-27T12:14:16;11.90;75.50
11284;DHT22;5698;47.332;11.180;2022-11-27T12:16:54;11.90;76.90
11284;DHT22;5698;47.332;11.180;2022-11-27T12:19:49;11.60;72.40
11284;DHT22;5698;47.332;11.180;2022-11-27T12:22:31;11.30;66.50
11284;DHT22;5698;47.332;11.180;2022-11-27T12:25:08;11.00;70.50
11284;DHT22;5698;47.332;11.180;2022-11-27T12:27:52;10.30;55.90
11284;DHT22;5698;47.332;11.180;2022-11-27T12:30:22;9.90;71.30
11284;DHT22;5698;47.332;11.180;2022-11-27T12:33:13;9.70;69.60
11284;DHT22;5698;47.332;11.180;2022-11-27T12:35:50;9.40;75.40
11284;DHT22;5698;47.332;11.180;2022-11-27T12:38:28;9.10;77.30
11284;DHT22;5698;47.332;11.180;2022-11-27T12:41:24;8.80;78.30
11284;DHT22;5698;47.332;11.180;2022-11-27T12:43:54;8.40;79.80
11284;DHT22;5698;47.332;11.180;2022-11-27T12:46:29;7.90;81.00
11284;DHT22;5698;47.332;11.180;2022-11-27T12:49:09;7.50;81.10
11284;DHT22;5698;47.332;11.180;2022-11-27T12:51:43;7.20;82.60
11284;DHT22;5698;47.332;11.180;2022-11-27T12:54:15;6.90;83.20
11284;DHT22;5698;47.332;11.180;2022-11-27T12:56:45;6.60;84.40
11284;DHT22;5698;47.332;11.180;2022-11-27T12:59:17;6.40;84.80
11284;DHT22;5698;47.332;11.180;2022-11-27T13:01:49;6.10;85.90
11284;DHT22;5698;47.332;11.180;2022-11-27T13:04:21;5.90;86.50
11284;DHT22;5698;47.332;11.180;2022-11-27T13:06:54;5.60;87.30
11284;DHT22;5698;47.332;11.180;2022-11-27T13:09:27;5.40;88.60
11284;DHT22;5698;47.332;11.180;2022-11-27T13:11:55;5.20;89.30
11284;DHT22;5698;47.332;11.180;2022-11-27T13:14:24;5.00;90.00
11284;DHT22;5698;47.332;11.180;2022-11-27T13:16:55;4.80;90.40
11284;DHT22;5698;47.332;11.180;2022-11-27T13:19:27;4.70;91.10
11284;DHT22;5698;47.332;11.180;2022-11-27T13:21:59;4.50;91.10
11284;DHT22;5698;47.332;11.180;2022-11-27T13:24:27;4.40;91.50
11284;DHT22;5698;47.332;11.180;2022-11-27T13:27:00;4.30;91.70
11284;DHT22;5698;47.332;11.180;2022-11-27T13:29:31;4.20;91.50
11284;DHT22;5698;47.332;11.180;2022-11-27T13:32:04;4.10;91.20
11284;DHT22;5698;47.332;11.180;2022-11-27T13:34:39;4.00;91.80
11284;DHT22;5698;47.332;11.180;2022-11-27T13:37:23;3.90;91.90
11284;DHT22;5698;47.332;11.180;2022-11-27T13:39:58;3.80;91.90
11284;DHT22;5698;47.332;11.180;2022-11-27T13:42:26;3.70;92.00
11284;DHT22;5698;47.332;11.180;2022-11-27T13:44:56;3.60;92.30
11284;DHT22;5698;47.332;11.180;2022-11-27T13:47:25;3.50;92.80
11284;DHT22;5698;47.332;11.180;2022-11-27T13:49:58;3.50;93.30
11284;DHT22;5698;47.332;11.180;2022-11-27T13:52:27;3.40;93.50
11284;DHT22;5698;47.332;11.180;2022-11-27T13:54:56;3.30;93.70
11284;DHT22;5698;47.332;11.180;2022-11-27T13:57:24;3.10;91.80
11284;DHT22;5698;47.332;11.180;2022-11-27T13:59:59;3.10;92.80
11284;DHT22;5698;47.332;11.180;2022-11-27T14:02:39;3.00;93.50
11284;DHT22;5698;47.332;11.180;2022-11-27T14:05:07;3.00;93.80
11284;DHT22;5698;47.332;11.180;2022-11-27T14:07:39;2.90;92.90
11284;DHT22;5698;47.332;11.180;2022-11-27T14:10:10;2.90;92.90
11284;DHT22;5698;47.332;11.180;2022-11-27T14:12:40;2.90;94.00
11284;DHT22;5698;47.332;11.180;2022-11-27T14:15:11;2.80;93.40
11284;DHT22;5698;47.332;11.180;2022-11-27T14:17:48;2.90;94.50
11284;DHT22;5698;47.332;11.180;2022-11-27T14:20:25;2.90;95.30
11284;DHT22;5698;47.332;11.180;2022-11-27T14:22:55;2.90;95.50
11284;DHT22;5698;47.332;11.180;2022-11-27T14:25:26;2.90;95.40
11284;DHT22;5698;47.332;11.180;2022-11-27T14:27:58;2.80;95.60
11284;DHT22;5698;47.332;11.180;2022-11-27T14:30:30;2.80;95.80
11284;DHT22;5698;47.332;11.180;2022-11-27T14:32:58;2.60;96.20
11284;DHT22;5698;47.332;11.180;2022-11-27T14:35:26;2.60;96.50
11284;DHT22;5698;47.332;11.180;2022-11-27T14:38:05;2.40;96.80
11284;DHT22;5698;47.332;11.180;2022-11-27T14:40:32;2.30;97.20
11284;DHT22;5698;47.332;11.180;2022-11-27T14:43:07;2.30;97.40
11284;DHT22;5698;47.332;11.180;2022-11-27T14:45:34;2.20;97.70
11284;DHT22;5698;47.332;11.180;2022-11-27T14:48:02;2.10;97.70
11284;DHT22;5698;47.332;11.180;2022-11-27T14:50:29;2.00;97.70
11284;DHT22;5698;47.332;11.180;2022-11-27T14:52:58;1.90;98.00
11284;DHT22;5698;47.332;11.180;2022-11-27T14:55:26;1.90;98.30
11284;DHT22;5698;47.332;11.180;2022-11-27T14:57:53;1.80;98.40
11284;DHT22;5698;47.332;11.180;2022-11-27T15:00:22;1.70;98.60
11284;DHT22;5698;47.332;11.180;2022-11-27T15:02:52;1.70;98.60
11284;DHT22;5698;47.332;11.180;2022-11-27T15:05:22;1.60;98.70
11284;DHT22;5698;47.332;11.180;2022-11-27T15:07:51;1.50;99.00
11284;DHT22;5698;47.332;11.180;2022-11-27T15:10:29;1.40;99.00
11284;DHT22;5698;47.332;11.180;2022-11-27T15:12:58;1.40;99.00
11284;DHT22;5698;47.332;11.180;2022-11-27T15:15:27;1.30;98.80
11284;DHT22;5698;47.332;11.180;2022-11-27T15:17:57;1.30;99.10
11284;DHT22;5698;47.332;11.180;2022-11-27T15:20:26;1.30;99.30
11284;DHT22;5698;47.332;11.180;2022-11-27T15:22:56;1.20;99.30
11284;DHT22;5698;47.332;11.180;2022-11-27T15:25:34;1.20;99.30
11284;DHT22;5698;47.332;11.180;2022-11-27T15:28:02;1.20;98.20
11284;DHT22;5698;47.332;11.180;2022-11-27T15:30:45;1.10;97.60
11284;DHT22;5698;47.332;11.180;2022-11-27T15:33:23;1.00;97.70
11284;DHT22;5698;47.332;11.180;2022-11-27T15:35:51;0.90;98.10
11284;DHT22;5698;47.332;11.180;2022-11-27T15:38:19;0.90;98.00
11284;DHT22;5698;47.332;11.180;2022-11-27T15:40:57;0.90;97.90
11284;DHT22;5698;47.332;11.180;2022-11-27T15:43:26;0.80;98.10
11284;DHT22;5698;47.332;11.180;2022-11-27T15:45:53;0.70;98.20
11284;DHT22;5698;47.332;11.180;2022-11-27T15:48:20;0.60;97.90
11284;DHT22;5698;47.332;11.180;2022-11-27T15:50:47;0.50;97.90
11284;DHT22;5698;47.332;11.180;2022-11-27T15:53:14;0.50;97.90
11284;DHT22;5698;47.332;11.180;2022-11-27T15:55:41;0.40;98.30
11284;DHT22;5698;47.332;11.180;2022-11-27T15:58:10;0.30;98.40
11284;DHT22;5698;47.332;11.180;2022-11-27T16:00:37;0.30;98.50
11284;DHT22;5698;47.332;11.180;2022-11-27T16:03:04;0.30;98.70
11284;DHT22;5698;47.332;11.180;2022-11-27T16:05:31;0.20;98.70
11284;DHT22;5698;47.332;11.180;2022-11-27T16:07:58;0.20;99.00